createdAt,value
2022-12-18T00:01:42.821Z,90.20
2022-12-18T00:04:23.875Z,90.10
2022-12-18T00:06:52.055Z,90.20
2022-12-18T00:09:19.085Z,90.20
2022-12-18T00:11:45.992Z,90.30
2022-12-18T00:14:14.238Z,90.30
2022-12-18T00:16:43.775Z,90.40
2022-12-18T00:19:11.582Z,90.40
2022-12-18T00:21:38.476Z,90.60
2022-12-18T00:24:07.476Z,90.60
2022-12-18T00:26:35.518Z,90.70
2022-12-18T00:29:05.826Z,90.80
2022-12-18T00:31:34.973Z,90.80
2022-12-18T00:34:02.330Z,90.80
2022-12-18T00:36:31.679Z,90.80
2022-12-18T00:38:59.680Z,90.90
2022-12-18T00:41:45.627Z,91.00
2022-12-18T00:44:15.220Z,91.00
2022-12-18T00:46:43.394Z,91.00
2022-12-18T00:49:11.021Z,90.80
2022-12-18T00:51:39.804Z,90.80
2022-12-18T00:54:06.853Z,90.80
2022-12-18T00:56:45.709Z,90.70
2022-12-18T00:59:17.362Z,90.50
2022-12-18T01:01:44.824Z,90.40
2022-12-18T01:04:12.873Z,90.20
2022-12-18T01:06:39.873Z,90.20
2022-12-18T01:09:07.514Z,90.20
2022-12-18T01:11:37.096Z,90.10
2022-12-18T01:14:05.426Z,90.10
2022-12-18T01:16:32.417Z,90.00
2022-12-18T01:18:59.445Z,90.10
2022-12-18T01:21:28.175Z,90.10
2022-12-18T01:23:57.006Z,90.10
2022-12-18T01:26:25.979Z,90.20
2022-12-18T01:28:55.766Z,90.10
2022-12-18T01:31:41.948Z,90.20
2022-12-18T01:34:09.957Z,90.10
2022-12-18T01:36:39.908Z,90.00
2022-12-18T01:39:13.666Z,90.10
2022-12-18T01:42:02.013Z,90.00
2022-12-18T01:44:48.805Z,90.00
2022-12-18T01:47:39.956Z,90.10
2022-12-18T01:50:20.615Z,90.20
2022-12-18T01:53:06.628Z,90.30
2022-12-18T01:55:58.938Z,90.30
2022-12-18T01:58:50.397Z,90.40
2022-12-18T02:01:17.791Z,90.30
2022-12-18T02:03:46.227Z,90.50
2022-12-18T02:06:17.128Z,90.50
2022-12-18T02:09:15.883Z,90.50
2022-12-18T02:12:01.418Z,90.50
2022-12-18T02:17:35.704Z,90.50
2022-12-18T02:20:09.777Z,90.40
2022-12-18T02:22:51.596Z,90.40
2022-12-18T02:25:21.557Z,90.40
2022-12-18T02:27:51.643Z,90.50
2022-12-18T02:30:22.652Z,90.60
2022-12-18T02:32:53.214Z,90.80
2022-12-18T02:35:26.243Z,90.70
2022-12-18T02:37:56.594Z,90.50
2022-12-18T02:40:27.164Z,90.40
2022-12-18T02:42:54.550Z,90.30
2022-12-18T02:45:21.911Z,90.10
2022-12-18T02:47:51.423Z,90.10
2022-12-18T02:50:42.790Z,90.10
2022-12-18T02:53:23.989Z,90.00
2022-12-18T02:56:18.187Z,90.00
2022-12-18T02:58:57.391Z,90.10
2022-12-18T03:02:06.577Z,90.10
2022-12-18T03:05:11.651Z,90.00
2022-12-18T03:07:47.935Z,90.10
2022-12-18T03:10:20.843Z,90.20
2022-12-18T03:13:05.751Z,90.30
2022-12-18T03:15:38.274Z,90.50
2022-12-18T03:18:45.571Z,90.60
2022-12-18T03:21:15.713Z,90.50
2022-12-18T03:23:47.910Z,90.50
2022-12-18T03:26:20.010Z,90.50
2022-12-18T03:28:56.754Z,90.40
2022-12-18T03:31:29.473Z,90.30
2022-12-18T03:34:02.335Z,90.30
2022-12-18T03:36:38.988Z,90.30
2022-12-18T03:39:07.856Z,90.20
2022-12-18T03:42:10.770Z,90.30
2022-12-18T03:45:09.287Z,90.10
2022-12-18T03:48:02.503Z,90.00
2022-12-18T03:50:43.555Z,90.00
2022-12-18T03:53:18.347Z,90.00
2022-12-18T03:55:50.434Z,90.00
2022-12-18T03:58:20.362Z,90.00
2022-12-18T04:01:00.667Z,89.50
2022-12-18T04:03:30.833Z,89.50
2022-12-18T04:06:00.327Z,89.60
2022-12-18T04:08:29.303Z,89.30
2022-12-18T04:11:06.311Z,89.30
2022-12-18T04:13:39.798Z,89.50
2022-12-18T04:16:14.338Z,89.40
2022-12-18T04:18:43.739Z,89.30
2022-12-18T04:21:11.353Z,89.60
2022-12-18T04:23:38.885Z,89.80
2022-12-18T04:26:07.236Z,89.60
2022-12-18T04:28:53.208Z,89.30
2022-12-18T04:31:21.705Z,89.50
2022-12-18T04:33:48.939Z,89.50
2022-12-18T04:36:17.534Z,89.70
2022-12-18T04:38:45.483Z,89.70
2022-12-18T04:41:15.733Z,90.00
2022-12-18T04:43:44.861Z,90.00
2022-12-18T04:46:11.809Z,89.60
2022-12-18T04:48:39.950Z,89.40
2022-12-18T04:51:07.541Z,89.30
2022-12-18T04:53:34.705Z,89.00
2022-12-18T04:56:14.683Z,89.00
2022-12-18T04:58:43.347Z,89.20
2022-12-18T05:01:11.352Z,89.50
2022-12-18T05:03:39.845Z,89.20
2022-12-18T05:06:08.455Z,89.30
2022-12-18T05:08:35.522Z,89.60
2022-12-18T05:11:05.445Z,89.70
2022-12-18T05:13:33.620Z,89.40
2022-12-18T05:16:00.907Z,89.70
2022-12-18T05:18:28.089Z,89.30
2022-12-18T05:20:55.763Z,89.60
2022-12-18T05:23:24.890Z,89.40
2022-12-18T05:25:56.509Z,89.10
2022-12-18T05:28:25.090Z,89.30
2022-12-18T05:30:53.659Z,89.40
2022-12-18T05:33:23.226Z,89.40
2022-12-18T05:35:57.237Z,89.30
2022-12-18T05:38:25.770Z,89.30
2022-12-18T05:40:53.727Z,89.50
2022-12-18T05:43:24.337Z,90.00
2022-12-18T05:45:53.862Z,89.70
2022-12-18T05:48:21.562Z,90.00
2022-12-18T05:50:50.947Z,89.80
2022-12-18T05:53:20.300Z,89.70
2022-12-18T05:55:48.016Z,89.30
2022-12-18T05:58:16.102Z,89.30
2022-12-18T06:00:46.487Z,89.40
2022-12-18T06:03:14.395Z,89.00
2022-12-18T06:05:46.174Z,89.00
2022-12-18T06:08:14.283Z,88.40
2022-12-18T06:10:42.400Z,88.50
2022-12-18T06:13:09.548Z,88.40
2022-12-18T06:15:39.347Z,88.10
2022-12-18T06:18:06.478Z,88.30
2022-12-18T06:20:34.088Z,88.50
2022-12-18T06:23:01.733Z,89.00
2022-12-18T06:25:28.524Z,88.90
2022-12-18T06:27:56.231Z,89.20
2022-12-18T06:30:23.383Z,88.80
2022-12-18T06:32:56.362Z,89.00
2022-12-18T06:35:24.508Z,89.00
2022-12-18T06:37:51.773Z,89.00
2022-12-18T06:40:21.037Z,89.10
2022-12-18T06:42:47.954Z,89.20
2022-12-18T06:45:15.590Z,88.90
2022-12-18T06:47:42.506Z,88.90
2022-12-18T06:50:09.498Z,88.80
2022-12-18T06:52:37.699Z,88.70
2022-12-18T06:55:05.152Z,89.10
2022-12-18T06:57:32.075Z,88.90
2022-12-18T06:59:59.339Z,89.00
2022-12-18T07:02:26.534Z,88.60
2022-12-18T07:04:54.391Z,88.50
2022-12-18T07:07:21.170Z,88.90
2022-12-18T07:09:50.895Z,89.10
2022-12-18T07:12:18.394Z,89.10
2022-12-18T07:14:45.430Z,88.80
2022-12-18T07:17:12.325Z,88.40
2022-12-18T07:19:39.367Z,88.70
2022-12-18T07:22:06.220Z,88.60
2022-12-18T07:24:34.994Z,88.40
2022-12-18T07:27:02.846Z,88.30
2022-12-18T07:29:29.871Z,88.70
2022-12-18T07:31:56.824Z,88.90
2022-12-18T07:34:23.811Z,88.50
2022-12-18T07:36:50.662Z,88.50
2022-12-18T07:39:18.387Z,88.50
2022-12-18T07:42:05.183Z,88.60
2022-12-18T07:44:33.549Z,89.20
2022-12-18T07:47:00.492Z,89.00
2022-12-18T07:49:27.442Z,89.10
2022-12-18T07:51:57.185Z,89.20
2022-12-18T07:54:25.330Z,89.30
2022-12-18T07:56:52.984Z,89.90
2022-12-18T07:59:20.108Z,89.50
2022-12-18T08:01:47.029Z,89.50
2022-12-18T08:04:14.167Z,90.60
2022-12-18T08:06:44.832Z,90.30
2022-12-18T08:09:14.511Z,90.40
2022-12-18T08:11:41.354Z,90.10
2022-12-18T08:14:08.375Z,90.20
2022-12-18T08:16:35.359Z,89.90
2022-12-18T08:19:02.638Z,89.80
2022-12-18T08:21:31.704Z,90.00
2022-12-18T08:24:01.475Z,89.60
2022-12-18T08:26:31.289Z,89.50
2022-12-18T08:29:00.424Z,90.20
2022-12-18T08:31:30.843Z,90.10
2022-12-18T08:33:58.320Z,90.00
2022-12-18T08:36:25.638Z,89.80
2022-12-18T08:38:54.090Z,89.70
2022-12-18T08:41:22.014Z,89.70
2022-12-18T08:44:07.515Z,89.00
2022-12-18T08:46:38.510Z,88.50
2022-12-18T08:49:06.416Z,88.40
2022-12-18T08:51:34.030Z,89.30
2022-12-18T08:54:01.832Z,88.80
2022-12-18T08:56:31.014Z,88.50
2022-12-18T08:58:59.295Z,88.10
2022-12-18T09:01:26.380Z,87.90
2022-12-18T09:03:53.821Z,87.60
2022-12-18T09:06:22.599Z,87.10
2022-12-18T09:08:50.313Z,86.80
2022-12-18T09:11:26.938Z,86.50
2022-12-18T09:13:55.708Z,87.00
2022-12-18T09:16:28.794Z,86.80
2022-12-18T09:19:02.773Z,86.00
2022-12-18T09:21:33.930Z,84.80
2022-12-18T09:24:08.026Z,84.10
2022-12-18T09:26:37.680Z,83.40
2022-12-18T09:29:05.374Z,82.90
2022-12-18T09:31:32.563Z,82.90
2022-12-18T09:33:59.423Z,81.80
2022-12-18T09:36:27.146Z,80.60
2022-12-18T09:38:54.265Z,81.10
2022-12-18T09:41:56.933Z,80.30
2022-12-18T09:44:54.320Z,80.20
2022-12-18T09:47:34.675Z,79.70
2022-12-18T09:50:24.652Z,79.90
2022-12-18T09:52:57.476Z,80.20
2022-12-18T09:55:36.805Z,80.20
2022-12-18T09:58:20.188Z,80.10
2022-12-18T10:00:47.367Z,80.40
2022-12-18T10:03:16.195Z,78.50
2022-12-18T10:06:03.042Z,77.60
2022-12-18T10:08:52.618Z,76.60
2022-12-18T10:11:33.290Z,75.80
2022-12-18T10:14:15.284Z,76.90
2022-12-18T10:16:58.790Z,77.00
2022-12-18T10:19:36.161Z,75.10
2022-12-18T10:22:12.257Z,73.50
2022-12-18T10:24:53.376Z,73.30
2022-12-18T10:27:27.258Z,73.20
2022-12-18T10:29:55.137Z,73.00
2022-12-18T10:32:30.295Z,72.20
2022-12-18T10:35:00.900Z,73.20
2022-12-18T10:37:30.488Z,74.10
2022-12-18T10:40:22.303Z,74.60
2022-12-18T10:43:12.425Z,74.50
2022-12-18T10:45:39.226Z,74.40
2022-12-18T10:48:18.262Z,73.10
2022-12-18T10:51:10.429Z,75.00
2022-12-18T10:53:38.694Z,73.40
2022-12-18T10:56:07.536Z,71.70
2022-12-18T10:58:37.152Z,70.10
2022-12-18T11:01:13.205Z,69.50
2022-12-18T11:04:00.434Z,70.10
2022-12-18T11:06:33.094Z,72.40
2022-12-18T11:09:07.880Z,70.50
2022-12-18T11:11:39.537Z,69.70
2022-12-18T11:14:25.062Z,69.20
2022-12-18T11:19:43.615Z,68.80
2022-12-18T11:22:29.199Z,70.50
2022-12-18T11:25:31.256Z,69.50
2022-12-18T11:28:01.897Z,70.50
2022-12-18T11:30:36.738Z,69.20
2022-12-18T11:33:11.736Z,65.50
2022-12-18T11:35:50.910Z,64.40
2022-12-18T11:38:27.166Z,63.30
2022-12-18T11:41:01.638Z,63.30
2022-12-18T11:43:31.359Z,62.70
2022-12-18T11:46:07.480Z,63.20
2022-12-18T11:48:42.420Z,64.20
2022-12-18T11:51:21.980Z,64.00
2022-12-18T11:53:53.368Z,64.20
2022-12-18T11:56:36.696Z,63.80
2022-12-18T11:59:32.782Z,64.50
2022-12-18T12:02:35.207Z,63.50
2022-12-18T12:05:11.244Z,62.90
2022-12-18T12:08:07.219Z,63.10
2022-12-18T12:10:58.403Z,63.70
2022-12-18T12:13:59.178Z,63.80
2022-12-18T12:16:28.705Z,63.60
2022-12-18T12:18:59.581Z,63.60
2022-12-18T12:21:41.686Z,63.80
2022-12-18T12:24:23.123Z,64.10
2022-12-18T12:27:19.316Z,64.50
2022-12-18T12:30:04.956Z,64.10
2022-12-18T12:32:48.481Z,65.00
2022-12-18T12:35:44.311Z,66.20
2022-12-18T12:38:43.700Z,66.00
2022-12-18T12:41:38.788Z,65.40
2022-12-18T12:44:10.146Z,66.10
2022-12-18T12:46:42.896Z,65.50
2022-12-18T12:49:18.659Z,66.40
2022-12-18T12:52:06.094Z,66.60
2022-12-18T12:54:39.197Z,68.20
2022-12-18T12:57:31.807Z,67.00
2022-12-18T13:00:06.084Z,66.00
2022-12-18T13:02:55.457Z,65.70
2022-12-18T13:05:49.362Z,65.60
2022-12-18T13:08:51.679Z,65.50
2022-12-18T13:13:46.829Z,65.40
2022-12-18T13:14:47.249Z,65.10
2022-12-18T13:17:30.382Z,65.70
2022-12-18T13:20:11.865Z,65.90
2022-12-18T13:22:46.951Z,65.20
2022-12-18T13:25:42.933Z,64.90
2022-12-18T13:28:47.669Z,64.70
2022-12-18T13:31:30.982Z,65.10
2022-12-18T13:34:33.523Z,63.90
2022-12-18T13:37:38.649Z,64.20
2022-12-18T13:40:45.839Z,64.30
2022-12-18T13:43:21.150Z,64.30
2022-12-18T13:45:50.835Z,64.40
2022-12-18T13:48:21.855Z,65.00
2022-12-18T13:51:07.621Z,65.40
2022-12-18T13:53:45.219Z,65.60
2022-12-18T13:56:19.090Z,65.10
2022-12-18T13:58:46.661Z,65.20
2022-12-18T14:01:24.430Z,65.40
2022-12-18T14:03:52.713Z,65.90
2022-12-18T14:06:19.983Z,65.70
2022-12-18T14:08:47.997Z,65.50
2022-12-18T14:11:23.435Z,65.90
2022-12-18T14:13:53.673Z,66.10
2022-12-18T14:16:20.878Z,66.10
2022-12-18T14:19:00.958Z,66.00
2022-12-18T14:21:38.866Z,66.00
2022-12-18T14:24:20.486Z,66.10
2022-12-18T14:26:50.782Z,67.00
2022-12-18T14:29:25.863Z,66.50
2022-12-18T14:32:17.751Z,66.30
2022-12-18T14:34:51.052Z,66.40
2022-12-18T14:37:28.491Z,66.80
2022-12-18T14:40:10.439Z,66.80
2022-12-18T14:45:53.002Z,66.50
2022-12-18T14:48:44.212Z,66.40
2022-12-18T14:51:33.541Z,66.60
2022-12-18T14:57:38.971Z,66.90
2022-12-18T15:00:23.258Z,66.70
2022-12-18T15:02:59.077Z,66.50
2022-12-18T15:05:29.968Z,66.40
2022-12-18T15:08:23.850Z,66.50
2022-12-18T15:10:54.033Z,66.30
2022-12-18T15:13:26.259Z,66.40
2022-12-18T15:16:01.855Z,66.80
2022-12-18T15:18:42.417Z,66.80
2022-12-18T15:21:12.667Z,66.60
2022-12-18T15:23:47.886Z,66.40
2022-12-18T15:26:18.225Z,65.90
2022-12-18T15:31:44.271Z,66.40
2022-12-18T15:34:25.412Z,66.40
2022-12-18T15:36:52.921Z,65.90
2022-12-18T15:39:49.469Z,65.50
2022-12-18T15:42:38.540Z,65.50
2022-12-18T15:45:06.764Z,65.50
2022-12-18T15:47:36.927Z,65.70
2022-12-18T15:50:04.556Z,66.00
2022-12-18T15:52:39.157Z,65.80
2022-12-18T15:55:34.077Z,65.70
2022-12-18T15:58:11.378Z,65.80
2022-12-18T16:00:41.720Z,66.00
2022-12-18T16:20:42.007Z,65.00
2022-12-18T16:23:11.610Z,64.90
2022-12-18T16:25:51.101Z,65.20
2022-12-18T16:28:48.559Z,65.70
2022-12-18T16:31:24.462Z,66.20
2022-12-18T16:34:56.195Z,65.90
2022-12-18T16:38:02.279Z,66.10
2022-12-18T16:41:00.915Z,65.60
2022-12-18T16:43:38.391Z,65.80
2022-12-18T16:50:20.538Z,65.70
2022-12-18T16:55:57.454Z,65.60
2022-12-18T16:58:27.254Z,65.70
2022-12-18T17:00:56.805Z,65.30
2022-12-18T17:03:25.539Z,65.30
2022-12-18T17:05:54.141Z,65.70
2022-12-18T17:08:22.299Z,65.60
2022-12-18T17:10:49.309Z,65.50
2022-12-18T17:13:21.458Z,65.60
2022-12-18T17:15:52.612Z,65.60
2022-12-18T17:18:21.963Z,66.10
2022-12-18T17:20:55.086Z,66.20
2022-12-18T17:23:26.164Z,65.60
2022-12-18T17:26:07.337Z,66.00
2022-12-18T17:28:47.229Z,66.10
2022-12-18T17:31:24.238Z,66.20
2022-12-18T17:34:09.727Z,65.70
2022-12-18T17:36:53.920Z,65.80
2022-12-18T17:39:25.922Z,65.70
2022-12-18T17:41:55.532Z,65.90
2022-12-18T17:44:23.319Z,65.80
2022-12-18T17:46:54.358Z,65.90
2022-12-18T17:49:22.568Z,65.70
2022-12-18T17:51:54.262Z,65.80
2022-12-18T17:54:42.888Z,65.80
2022-12-18T17:57:12.805Z,66.00
2022-12-18T17:59:59.944Z,66.00
2022-12-18T18:02:55.239Z,65.90
2022-12-18T18:05:24.164Z,66.00
2022-12-18T18:07:51.079Z,66.10
2022-12-18T18:10:19.476Z,66.40
2022-12-18T18:13:05.127Z,66.00
2022-12-18T18:15:33.372Z,66.10
2022-12-18T18:18:10.767Z,66.20
2022-12-18T18:20:44.332Z,65.90
2022-12-18T18:23:11.921Z,66.10
2022-12-18T18:25:42.753Z,66.30
2022-12-18T18:28:21.917Z,66.00
2022-12-18T18:30:49.241Z,65.90
2022-12-18T18:33:17.518Z,66.10
2022-12-18T18:35:54.368Z,66.30
2022-12-18T18:38:36.275Z,66.00
2022-12-18T18:41:42.244Z,66.40
2022-12-18T18:48:32.876Z,66.80
2022-12-18T18:54:36.302Z,66.80
2022-12-18T18:57:37.708Z,66.70
2022-12-18T19:00:29.384Z,67.90
2022-12-18T19:03:23.396Z,66.90
2022-12-18T19:07:03.592Z,67.10
2022-12-18T19:09:33.398Z,66.70
2022-12-18T19:12:19.035Z,66.70
2022-12-18T19:14:46.104Z,66.90
2022-12-18T19:17:13.095Z,66.90
2022-12-18T19:19:41.690Z,66.60
2022-12-18T19:22:09.712Z,66.30
2022-12-18T19:24:37.731Z,66.40
2022-12-18T19:27:05.709Z,66.60
2022-12-18T19:29:32.735Z,67.40
2022-12-18T19:32:01.997Z,67.20
2022-12-18T19:34:28.929Z,67.30
2022-12-18T19:36:59.687Z,66.80
2022-12-18T19:39:27.234Z,67.80
2022-12-18T19:41:54.646Z,67.80
2022-12-18T19:44:21.711Z,67.20
2022-12-18T19:47:00.561Z,67.20
2022-12-18T19:55:53.216Z,67.30
2022-12-18T19:58:39.008Z,67.40
2022-12-18T20:01:08.724Z,67.20
2022-12-18T20:03:51.840Z,67.10
2022-12-18T20:06:36.802Z,66.60
2022-12-18T20:09:28.197Z,66.70
2022-12-18T20:16:20.723Z,66.80
2022-12-18T20:37:48.852Z,65.60
2022-12-18T20:40:22.043Z,66.00
2022-12-18T20:42:48.966Z,66.30
2022-12-18T20:45:16.032Z,66.40
2022-12-18T20:47:42.879Z,66.00
2022-12-18T20:50:10.261Z,65.60
2022-12-18T20:52:40.307Z,65.60
2022-12-18T20:55:07.570Z,64.90
2022-12-18T20:57:34.542Z,64.70
2022-12-18T21:00:05.233Z,65.10
2022-12-18T21:02:32.349Z,65.20
2022-12-18T21:05:00.310Z,65.50
2022-12-18T21:07:27.518Z,65.50
2022-12-18T21:09:57.363Z,65.80
2022-12-18T21:12:42.816Z,65.90
2022-12-18T21:15:15.844Z,65.90
2022-12-18T21:17:44.442Z,65.90
2022-12-18T21:20:13.276Z,65.60
2022-12-18T21:22:44.723Z,65.40
2022-12-18T21:25:11.603Z,65.10
2022-12-18T21:27:38.487Z,65.10
2022-12-18T21:30:06.032Z,64.80
2022-12-18T21:32:33.663Z,64.80
2022-12-18T21:35:00.925Z,64.70
2022-12-18T21:37:27.928Z,64.80
2022-12-18T21:39:55.088Z,64.40
2022-12-18T21:42:40.531Z,64.40
2022-12-18T21:45:08.632Z,64.40
2022-12-18T21:47:35.704Z,64.40
2022-12-18T21:50:02.634Z,64.50
2022-12-18T21:52:32.598Z,64.00
2022-12-18T21:55:08.931Z,64.20
2022-12-18T21:57:39.364Z,64.60
2022-12-18T22:00:10.614Z,64.90
2022-12-18T22:02:39.917Z,65.10
2022-12-18T22:05:07.603Z,65.30
2022-12-18T22:07:34.828Z,65.10
2022-12-18T22:10:02.024Z,65.20
2022-12-18T22:12:43.771Z,65.30
2022-12-18T22:15:15.734Z,65.60
2022-12-18T22:17:48.491Z,65.90
2022-12-18T22:20:16.147Z,66.10
2022-12-18T22:22:43.992Z,65.20
2022-12-18T22:25:11.455Z,65.40
2022-12-18T22:27:38.431Z,65.40
2022-12-18T22:30:06.045Z,65.80
2022-12-18T22:32:35.113Z,65.70
2022-12-18T22:35:09.222Z,65.80
2022-12-18T22:37:37.614Z,65.70
2022-12-18T22:40:06.179Z,65.40
2022-12-18T22:42:35.265Z,65.80
2022-12-18T22:45:02.270Z,66.10
2022-12-18T22:47:30.405Z,66.00
2022-12-18T22:49:58.297Z,66.20
2022-12-18T22:52:26.056Z,66.50
2022-12-18T22:54:54.351Z,66.30
2022-12-18T22:57:22.859Z,66.20
2022-12-18T22:59:50.842Z,66.40
2022-12-18T23:02:18.777Z,66.40
2022-12-18T23:04:46.036Z,66.60
2022-12-18T23:07:13.507Z,66.20
2022-12-18T23:09:40.692Z,65.40
2022-12-18T23:12:19.382Z,65.40
2022-12-18T23:14:47.324Z,65.70
2022-12-18T23:17:14.355Z,65.70
2022-12-18T23:19:48.654Z,66.10
2022-12-18T23:22:16.692Z,65.70
2022-12-18T23:24:43.708Z,65.80
2022-12-18T23:27:12.243Z,65.80
2022-12-18T23:29:40.616Z,65.60
2022-12-18T23:32:08.084Z,65.40
2022-12-18T23:34:34.929Z,65.50
2022-12-18T23:37:03.768Z,65.70
2022-12-18T23:39:30.873Z,65.90
2022-12-18T23:41:58.908Z,65.80
2022-12-18T23:44:26.138Z,66.10
2022-12-18T23:46:53.637Z,65.40
2022-12-18T23:49:20.847Z,64.90
2022-12-18T23:51:48.265Z,65.00
2022-12-18T23:54:15.127Z,64.80
2022-12-18T23:56:42.135Z,64.90
2022-12-18T23:59:09.137Z,65.00
